West Point, Virginia
Current Conditions -  °F | °C
As of 5:55 PM on Wednesday 22 Oct 2014 (Local Time) from KFYJ Reporting Station
Overcast Overcast  
Wind Chill: 56°   Ceiling: 1700
Heat Index: 56°   Visibility: 10mi
Dew Point: 50°   Wind: 8mph
Humidity: 80%   Direction: 310°NW
Pressure: 29.91"   Gusts: 18mph
Location:  37.53°N, 76.8°W
Report Text: KFYJ 222155Z AUTO 31007G16KT 10SM BKN017 OVC021 14/10 A2991 RMK AO2 T01350102
Loading
Personal Weather Stations






























Interactive Weather Map
Tropical Storm Tracking
New forecast layout! Learn more

10-Day Weather Forecast

Advertisements
Track Severe Weather on mobile